Time;durP1;ratioP1;P1;durP2;ratioP2;P2;SDS_P1;SDS_P2;PMS_P1;PMS_P2;Temp;Humidity;BMP_temperature;BMP_pressure;BME280_temperature;BME280_humidity;BME280_pressure;Samples;Min_cycle;Max_cycle;Signal;HPM_P1;HPM_P2
2022/05/25 00:02:03;;;;;;;0.30;0.30;;;13.60;99.90;;;;;;5054353;28;20220;-65
2022/05/25 00:04:30;;;;;;;0.47;0.47;;;13.60;99.90;;;;;;5048147;28;20200;-65
2022/05/25 00:06:57;;;;;;;0.50;0.50;;;13.60;99.90;;;;;;5034863;28;20653;-66
2022/05/25 00:09:24;;;;;;;0.60;0.60;;;13.50;99.90;;;;;;5039584;28;20239;-64
2022/05/25 00:11:51;;;;;;;0.50;0.50;;;13.50;99.90;;;;;;5049855;28;20205;-66
2022/05/25 00:14:19;;;;;;;0.40;0.40;;;13.50;99.90;;;;;;5050013;28;20236;-65
2022/05/25 00:16:46;;;;;;;0.50;0.50;;;13.50;99.90;;;;;;5046267;28;20260;-67
2022/05/25 00:21:58;;;;;;;0.47;0.47;;;13.40;99.90;;;;;;5036992;28;20235;-66
2022/05/25 00:24:25;;;;;;;0.30;0.30;;;13.50;99.90;;;;;;5037108;28;20239;-67
2022/05/25 00:26:52;;;;;;;0.60;0.60;;;13.50;99.90;;;;;;5035070;28;20267;-66
2022/05/25 00:29:20;;;;;;;0.50;0.50;;;13.50;99.90;;;;;;5033028;28;20626;-64
2022/05/25 00:31:47;;;;;;;0.30;0.30;;;13.50;99.90;;;;;;5032035;28;20204;-65
2022/05/25 00:34:14;;;;;;;0.50;0.50;;;13.60;99.90;;;;;;5032486;28;20201;-66
2022/05/25 00:36:41;;;;;;;0.50;0.50;;;13.50;99.90;;;;;;5032597;28;20319;-67
2022/05/25 00:39:07;;;;;;;0.37;0.37;;;13.50;99.90;;;;;;5032679;28;20208;-66
2022/05/25 00:41:35;;;;;;;0.60;0.60;;;13.50;99.90;;;;;;5032456;28;20251;-66
2022/05/25 00:44:05;;;;;;;0.50;0.50;;;13.50;99.90;;;;;;5031664;28;20304;-67
2022/05/25 00:46:37;;;;;;;0.53;0.53;;;13.40;99.90;;;;;;5032633;28;20331;-66
2022/05/25 00:49:06;;;;;;;0.40;0.40;;;13.50;99.90;;;;;;5032525;28;20291;-66
2022/05/25 00:51:40;;;;;;;0.50;0.50;;;13.40;99.90;;;;;;5032565;28;20209;-66
2022/05/25 00:54:11;;;;;;;0.40;0.40;;;13.40;99.90;;;;;;5031871;28;20215;-66
2022/05/25 00:56:41;;;;;;;0.43;0.40;;;13.40;99.90;;;;;;5032422;28;20239;-67
2022/05/25 00:59:11;;;;;;;0.40;0.40;;;13.40;99.90;;;;;;5032845;28;20212;-66
2022/05/25 01:01:39;;;;;;;0.43;0.43;;;13.40;99.90;;;;;;5033026;28;20320;-65
2022/05/25 01:04:06;;;;;;;0.80;0.80;;;13.40;99.90;;;;;;5033409;28;20689;-67
2022/05/25 01:06:46;;;;;;;0.53;0.53;;;13.30;99.90;;;;;;5032302;28;20664;-66
2022/05/25 01:09:21;;;;;;;0.60;0.60;;;13.30;99.90;;;;;;5032020;28;20291;-67
2022/05/25 01:11:58;;;;;;;0.33;0.33;;;13.20;99.90;;;;;;5031478;28;20279;-65
2022/05/25 01:14:38;;;;;;;0.60;0.50;;;13.20;99.90;;;;;;5031724;28;20218;-66
2022/05/25 01:17:16;;;;;;;0.50;0.50;;;13.20;99.90;;;;;;5032069;28;20278;-67
2022/05/25 01:20:14;;;;;;;0.47;0.40;;;13.10;99.90;;;;;;5032057;28;20569;-66
2022/05/25 01:23:23;;;;;;;0.37;0.37;;;13.20;99.90;;;;;;5020525;28;20224;-66
2022/05/25 01:26:17;;;;;;;0.40;0.40;;;13.20;99.90;;;;;;5032375;28;20236;-66
2022/05/25 01:29:07;;;;;;;0.60;0.60;;;13.30;99.90;;;;;;5028569;28;20205;-66
2022/05/25 01:31:41;;;;;;;0.30;0.30;;;13.20;99.90;;;;;;5034742;28;20316;-66
2022/05/25 01:34:13;;;;;;;0.40;0.40;;;13.20;99.90;;;;;;5039449;28;20764;-67
2022/05/25 01:36:49;;;;;;;0.50;0.50;;;13.20;99.90;;;;;;5040467;28;20229;-66
2022/05/25 01:39:21;;;;;;;0.93;0.40;;;13.20;99.90;;;;;;5032186;28;20286;-66
2022/05/25 01:41:53;;;;;;;0.52;0.52;;;13.20;99.90;;;;;;5030634;28;20235;-66
2022/05/25 01:44:25;;;;;;;0.70;0.70;;;13.20;99.90;;;;;;5031835;28;20295;-66
2022/05/25 01:46:57;;;;;;;0.50;0.50;;;13.10;99.90;;;;;;5031632;28;20315;-67
2022/05/25 01:49:32;;;;;;;0.47;0.47;;;13.10;99.90;;;;;;5031793;28;20295;-66
2022/05/25 01:52:03;;;;;;;0.57;0.50;;;13.00;99.90;;;;;;5030876;28;20600;-66
2022/05/25 01:54:35;;;;;;;0.30;0.30;;;13.10;99.90;;;;;;5031401;28;20746;-64
2022/05/25 01:57:06;;;;;;;0.40;0.40;;;13.00;99.90;;;;;;5031647;28;20323;-67
2022/05/25 01:59:33;;;;;;;0.47;0.40;;;13.00;99.90;;;;;;5040127;28;20229;-66
2022/05/25 02:04:50;;;;;;;0.40;0.40;;;13.00;99.90;;;;;;5052002;28;20323;-66
2022/05/25 02:07:32;;;;;;;1.80;0.40;;;13.00;99.90;;;;;;5054065;28;20318;-66
2022/05/25 02:10:26;;;;;;;0.40;0.40;;;13.00;99.90;;;;;;5055710;28;20279;-66
2022/05/25 02:13:35;;;;;;;0.40;0.40;;;13.00;99.90;;;;;;5054420;28;20291;-66
2022/05/25 02:16:21;;;;;;;0.40;0.40;;;13.10;99.90;;;;;;5050020;28;20208;-65
2022/05/25 02:19:00;;;;;;;0.57;0.57;;;13.10;99.90;;;;;;5055170;28;20265;-67
2022/05/25 02:21:32;;;;;;;0.50;0.50;;;13.00;99.90;;;;;;5054939;28;20227;-65
2022/05/25 02:24:04;;;;;;;0.47;0.47;;;13.00;99.90;;;;;;5054264;28;20303;-67
2022/05/25 02:26:36;;;;;;;0.45;0.45;;;13.00;99.90;;;;;;5054696;28;20263;-66
2022/05/25 02:29:08;;;;;;;0.40;0.40;;;13.00;99.90;;;;;;5054947;28;20208;-66
2022/05/25 02:31:38;;;;;;;0.47;0.47;;;12.90;99.90;;;;;;5054777;28;20224;-67
2022/05/25 02:34:10;;;;;;;0.40;0.40;;;13.00;99.90;;;;;;5038126;28;20203;-67
2022/05/25 02:36:39;;;;;;;0.50;0.50;;;13.00;99.90;;;;;;5033356;28;20311;-67
2022/05/25 02:39:07;;;;;;;0.30;0.30;;;13.00;99.90;;;;;;5032381;28;20209;-65
2022/05/25 02:41:36;;;;;;;0.40;0.40;;;12.90;99.90;;;;;;5032722;28;20283;-66
2022/05/25 02:44:04;;;;;;;0.27;0.27;;;12.90;99.90;;;;;;5032743;28;20221;-66
2022/05/25 02:46:31;;;;;;;0.60;0.43;;;12.90;99.90;;;;;;5032790;28;20252;-66
2022/05/25 02:48:58;;;;;;;0.60;0.60;;;12.90;99.90;;;;;;5033560;28;20288;-66
2022/05/25 02:51:26;;;;;;;0.40;0.40;;;12.90;99.90;;;;;;5034303;28;20660;-66
2022/05/25 02:53:53;;;;;;;0.43;0.43;;;12.90;99.90;;;;;;5042920;28;20575;-67
2022/05/25 02:56:20;;;;;;;0.50;0.50;;;12.80;99.90;;;;;;5034405;28;20299;-66
2022/05/25 02:58:47;;;;;;;0.40;0.40;;;12.80;99.90;;;;;;5033961;28;20207;-68
2022/05/25 03:01:14;;;;;;;0.40;0.40;;;12.80;99.90;;;;;;5033839;28;20232;-65
2022/05/25 03:03:41;;;;;;;0.63;0.63;;;12.80;99.90;;;;;;5033492;28;20233;-66
2022/05/25 03:06:09;;;;;;;0.83;0.83;;;12.80;99.90;;;;;;5034371;28;20295;-67
2022/05/25 03:08:38;;;;;;;0.47;0.47;;;12.80;99.90;;;;;;5033988;28;20209;-67
2022/05/25 03:11:05;;;;;;;0.52;0.52;;;12.80;99.90;;;;;;5033962;28;20288;-66
2022/05/25 03:13:32;;;;;;;0.73;0.43;;;12.80;99.90;;;;;;5033085;28;20575;-67
2022/05/25 03:16:00;;;;;;;0.60;0.60;;;12.70;99.90;;;;;;5032732;28;20231;-67
2022/05/25 03:18:27;;;;;;;0.53;0.40;;;12.70;99.90;;;;;;5031348;28;20256;-66
2022/05/25 03:20:54;;;;;;;0.47;0.47;;;12.60;99.90;;;;;;5031927;28;20201;-67
2022/05/25 03:23:21;;;;;;;0.47;0.47;;;12.60;99.90;;;;;;5030880;28;20716;-65
2022/05/25 03:25:50;;;;;;;0.57;0.50;;;12.60;99.90;;;;;;5031809;28;20236;-67
2022/05/25 03:28:17;;;;;;;0.40;0.40;;;12.60;99.90;;;;;;5032130;28;20252;-68
2022/05/25 03:30:47;;;;;;;0.30;0.30;;;12.60;99.90;;;;;;5031644;28;20243;-67
2022/05/25 03:33:14;;;;;;;0.37;0.37;;;12.60;99.90;;;;;;5032019;28;20569;-67
2022/05/25 03:35:43;;;;;;;0.40;0.40;;;12.60;99.90;;;;;;5044382;28;20204;-67
2022/05/25 03:38:10;;;;;;;0.57;0.57;;;12.60;99.90;;;;;;5041185;28;20236;-66
2022/05/25 03:40:38;;;;;;;0.45;0.45;;;12.50;99.90;;;;;;5036767;28;20215;-67
2022/05/25 03:43:07;;;;;;;0.50;0.50;;;12.50;99.90;;;;;;5031118;28;20232;-65
2022/05/25 03:45:34;;;;;;;0.70;0.70;;;12.50;99.90;;;;;;5032132;28;20262;-66
2022/05/25 03:48:01;;;;;;;0.40;0.40;;;12.50;99.90;;;;;;5032541;28;20631;-65
2022/05/25 03:50:28;;;;;;;0.50;0.50;;;12.50;99.90;;;;;;5039156;28;20231;-65
2022/05/25 03:52:55;;;;;;;0.70;0.70;;;12.50;99.90;;;;;;5046038;28;20232;-66
2022/05/25 03:55:22;;;;;;;0.40;0.40;;;12.40;99.90;;;;;;5048140;28;20211;-67
2022/05/25 03:57:48;;;;;;;0.40;0.40;;;12.30;99.90;;;;;;5046630;28;20232;-65
2022/05/25 04:00:18;;;;;;;0.40;0.40;;;12.20;99.90;;;;;;5045518;28;20201;-67
2022/05/25 04:02:46;;;;;;;0.50;0.50;;;12.30;99.90;;;;;;5037208;28;20213;-68
2022/05/25 04:05:13;;;;;;;0.43;0.43;;;12.30;99.90;;;;;;5036143;28;20226;-67
2022/05/25 04:07:42;;;;;;;0.70;0.70;;;12.30;99.90;;;;;;5035069;28;20319;-66
2022/05/25 04:10:12;;;;;;;0.40;0.40;;;12.40;99.90;;;;;;5033223;28;20311;-66
2022/05/25 04:12:40;;;;;;;0.40;0.40;;;12.40;99.90;;;;;;5033836;28;20205;-67
2022/05/25 04:15:08;;;;;;;0.50;0.50;;;12.40;99.90;;;;;;5029438;28;20201;-67
2022/05/25 04:17:36;;;;;;;0.50;0.50;;;12.50;99.90;;;;;;5032114;28;20762;-67
2022/05/25 04:20:05;;;;;;;0.52;0.52;;;12.60;99.90;;;;;;5031343;28;20264;-65
2022/05/25 04:22:33;;;;;;;0.60;0.60;;;12.60;99.90;;;;;;5030623;28;20681;-67
2022/05/25 04:25:01;;;;;;;0.40;0.40;;;12.70;99.90;;;;;;5031706;28;20211;-67
2022/05/25 04:27:28;;;;;;;0.70;0.70;;;12.70;99.90;;;;;;5030956;28;20294;-67
2022/05/25 04:29:55;;;;;;;0.50;0.50;;;12.80;99.90;;;;;;5031098;28;20204;-67
2022/05/25 04:32:22;;;;;;;0.60;0.60;;;12.80;99.90;;;;;;5030203;28;20719;-67
2022/05/25 04:34:50;;;;;;;0.50;0.50;;;12.90;99.90;;;;;;5030814;28;20211;-67
2022/05/25 04:40:02;;;;;;;0.73;0.47;;;12.90;99.90;;;;;;5043408;28;20561;-67
2022/05/25 04:42:29;;;;;;;0.63;0.63;;;12.90;99.90;;;;;;5052146;28;20200;-67
2022/05/25 04:45:00;;;;;;;0.60;0.60;;;12.90;99.90;;;;;;5052489;28;20211;-67
2022/05/25 04:47:28;;;;;;;0.70;0.70;;;12.90;99.90;;;;;;5028970;28;20220;-66
2022/05/25 04:49:56;;;;;;;0.60;0.60;;;12.90;99.90;;;;;;5031849;28;20292;-67
2022/05/25 04:52:23;;;;;;;0.70;0.70;;;12.80;99.90;;;;;;5033712;28;20259;-66
2022/05/25 04:54:50;;;;;;;0.50;0.50;;;12.80;99.90;;;;;;5043300;28;20209;-67
2022/05/25 04:57:23;;;;;;;0.50;0.50;;;12.80;99.90;;;;;;5037005;28;20224;-68
2022/05/25 04:59:51;;;;;;;0.50;0.50;;;12.80;99.90;;;;;;5034451;28;20200;-67
2022/05/25 05:02:18;;;;;;;0.57;0.57;;;12.70;99.90;;;;;;5029136;28;20287;-66
2022/05/25 05:04:46;;;;;;;0.30;0.30;;;12.60;99.90;;;;;;5032865;28;20228;-66
2022/05/25 05:07:15;;;;;;;0.40;0.40;;;12.60;99.90;;;;;;5076006;22;20331;-63
2022/05/25 05:09:44;;;;;;;0.30;0.30;;;12.70;99.90;;;;;;5028325;28;20656;-63
2022/05/25 05:12:12;;;;;;;0.60;0.60;;;12.70;99.90;;;;;;5031609;28;20736;-63
2022/05/25 05:14:39;;;;;;;0.50;0.50;;;13.00;99.90;;;;;;5032692;28;20289;-64
2022/05/25 05:17:08;;;;;;;0.60;0.60;;;13.10;99.90;;;;;;5029283;28;20291;-60
2022/05/25 05:19:35;;;;;;;0.60;0.60;;;13.30;99.90;;;;;;5046691;28;20290;-64
2022/05/25 05:22:02;;;;;;;0.70;0.70;;;13.50;99.90;;;;;;5039976;28;20292;-63
2022/05/25 05:24:32;;;;;;;0.50;0.50;;;13.70;99.90;;;;;;5044109;28;20310;-62
2022/05/25 05:26:59;;;;;;;0.73;0.70;;;13.90;99.90;;;;;;5037216;28;20204;-61
2022/05/25 05:29:30;;;;;;;0.70;0.70;;;14.10;99.90;;;;;;5044690;28;20262;-63
2022/05/25 05:31:57;;;;;;;0.70;0.70;;;14.30;99.90;;;;;;5039379;28;20201;-62
2022/05/25 05:34:27;;;;;;;0.70;0.70;;;14.40;99.90;;;;;;5030010;28;20284;-62
2022/05/25 05:36:59;;;;;;;0.50;0.50;;;14.60;99.90;;;;;;5036887;28;20204;-62
2022/05/25 05:39:29;;;;;;;0.60;0.60;;;14.80;99.90;;;;;;5029964;28;20224;-62
2022/05/25 05:42:03;;;;;;;0.67;0.67;;;14.90;99.90;;;;;;5037512;28;20224;-62
2022/05/25 05:44:36;;;;;;;0.80;0.80;;;15.00;99.90;;;;;;5043500;28;20209;-62
2022/05/25 05:47:06;;;;;;;0.60;0.60;;;15.20;99.90;;;;;;5035382;28;20288;-62
2022/05/25 05:49:35;;;;;;;0.67;0.67;;;15.30;99.90;;;;;;5035912;28;20625;-62
2022/05/25 05:52:02;;;;;;;0.60;0.60;;;15.50;99.90;;;;;;5035112;28;20678;-62
2022/05/25 05:54:29;;;;;;;0.60;0.60;;;15.60;99.90;;;;;;5035250;28;20211;-62
2022/05/25 05:56:58;;;;;;;0.70;0.70;;;15.70;99.90;;;;;;5035753;28;20283;-62
2022/05/25 05:59:25;;;;;;;0.60;0.60;;;15.70;99.90;;;;;;5034176;28;20274;-61
2022/05/25 06:01:52;;;;;;;0.43;0.43;;;15.80;99.90;;;;;;5034753;28;20201;-61
2022/05/25 06:04:20;;;;;;;1.17;0.97;;;15.90;99.90;;;;;;5025836;28;20757;-61
2022/05/25 06:06:46;;;;;;;1.30;1.10;;;16.00;99.90;;;;;;5036730;28;20291;-61
2022/05/25 06:09:13;;;;;;;0.67;0.67;;;16.10;99.90;;;;;;5035395;28;20236;-61
2022/05/25 06:11:42;;;;;;;0.70;0.70;;;16.20;99.90;;;;;;5035474;28;20663;-61
2022/05/25 06:14:11;;;;;;;2.10;0.60;;;16.30;99.90;;;;;;5035012;28;20209;-61
2022/05/25 06:19:29;;;;;;;0.43;0.43;;;16.50;99.90;;;;;;5034963;28;20228;-62
2022/05/25 06:22:00;;;;;;;0.63;0.63;;;16.60;99.90;;;;;;5039356;28;20197;-62
2022/05/25 06:24:29;;;;;;;0.65;0.65;;;16.70;99.90;;;;;;5037808;28;20211;-61
2022/05/25 06:26:56;;;;;;;0.60;0.60;;;16.80;99.90;;;;;;5051381;28;20204;-63
2022/05/25 06:29:25;;;;;;;0.40;0.40;;;16.80;99.90;;;;;;5037234;28;20227;-64
2022/05/25 06:31:52;;;;;;;0.60;0.60;;;16.90;99.90;;;;;;5032577;28;20288;-62
2022/05/25 06:34:19;;;;;;;0.53;0.53;;;17.00;99.90;;;;;;5025805;28;20203;-62
2022/05/25 06:36:48;;;;;;;0.47;0.47;;;17.20;99.90;;;;;;5029613;28;20288;-62
2022/05/25 06:39:16;;;;;;;0.40;0.40;;;17.30;99.90;;;;;;5049826;28;20299;-64
2022/05/25 06:41:43;;;;;;;0.50;0.50;;;17.50;99.90;;;;;;5034151;28;20208;-60
2022/05/25 06:44:09;;;;;;;0.60;0.40;;;17.60;99.90;;;;;;5032845;28;20305;-61
2022/05/25 06:46:38;;;;;;;0.50;0.50;;;17.70;99.90;;;;;;5033338;28;20236;-60
2022/05/25 06:49:05;;;;;;;0.60;0.60;;;17.90;99.90;;;;;;5033969;28;20787;-61
2022/05/25 06:51:34;;;;;;;0.40;0.40;;;18.10;99.90;;;;;;5041134;28;20240;-62
2022/05/25 06:54:01;;;;;;;0.40;0.40;;;18.20;99.90;;;;;;5051867;28;20199;-64
2022/05/25 06:56:28;;;;;;;0.50;0.50;;;18.30;99.90;;;;;;5039870;28;20247;-63
2022/05/25 06:58:56;;;;;;;0.40;0.40;;;18.40;99.90;;;;;;5051865;28;20630;-63
2022/05/25 07:01:24;;;;;;;0.30;0.30;;;18.50;99.90;;;;;;5039652;28;20200;-63
2022/05/25 07:03:53;;;;;;;0.50;0.50;;;18.70;99.90;;;;;;5041150;28;20316;-63
2022/05/25 07:06:21;;;;;;;0.53;0.50;;;18.80;99.90;;;;;;5045338;28;20196;-62
2022/05/25 07:08:48;;;;;;;0.50;0.50;;;19.00;99.90;;;;;;5051485;28;20239;-61
2022/05/25 07:11:15;;;;;;;0.70;0.70;;;19.10;99.90;;;;;;5042395;28;20211;-62
2022/05/25 07:13:43;;;;;;;0.50;0.50;;;19.10;99.90;;;;;;5050181;28;20286;-62
2022/05/25 07:16:13;;;;;;;0.70;0.70;;;19.10;99.90;;;;;;5053845;28;20235;-62
2022/05/25 07:18:40;;;;;;;0.50;0.50;;;19.00;99.90;;;;;;5053615;28;20259;-61
2022/05/25 07:21:10;;;;;;;0.53;0.53;;;19.00;99.90;;;;;;5058719;28;20212;-61
2022/05/25 07:23:38;;;;;;;0.50;0.50;;;19.10;99.90;;;;;;5054186;28;20223;-61
2022/05/25 07:26:06;;;;;;;0.50;0.50;;;19.10;99.90;;;;;;5053586;28;20920;-61
2022/05/25 07:28:34;;;;;;;0.40;0.40;;;19.10;99.90;;;;;;5053664;28;20592;-62
2022/05/25 07:31:04;;;;;;;0.60;0.60;;;19.10;99.90;;;;;;5053246;28;20208;-62
2022/05/25 07:33:31;;;;;;;0.43;0.43;;;19.20;99.90;;;;;;5052340;28;20793;-61
2022/05/25 07:35:58;;;;;;;0.50;0.50;;;19.30;99.90;;;;;;5053191;28;20215;-61
2022/05/25 07:38:29;;;;;;;0.60;0.60;;;19.40;99.90;;;;;;5052859;28;20334;-61
2022/05/25 07:40:58;;;;;;;0.60;0.60;;;19.50;99.90;;;;;;5053078;28;20577;-61
2022/05/25 07:43:27;;;;;;;0.87;0.60;;;19.70;99.90;;;;;;5052048;28;20647;-61
2022/05/25 07:45:54;;;;;;;0.63;0.63;;;19.70;99.90;;;;;;5052881;28;20690;-62
2022/05/25 07:48:20;;;;;;;0.60;0.60;;;19.40;99.90;;;;;;5052782;28;20672;-61
2022/05/25 07:50:48;;;;;;;0.40;0.40;;;19.40;99.90;;;;;;5053137;28;20200;-61
2022/05/25 07:56:03;;;;;;;0.40;0.40;;;19.50;99.90;;;;;;5053727;28;20198;-61
2022/05/25 07:58:30;;;;;;;0.50;0.50;;;19.60;99.90;;;;;;5052897;28;20228;-61
2022/05/25 08:00:59;;;;;;;0.60;0.60;;;19.70;99.90;;;;;;5052757;28;20210;-62
2022/05/25 08:06:11;;;;;;;0.33;0.33;;;19.80;99.90;;;;;;5052482;28;20295;-61
2022/05/25 08:08:38;;;;;;;1.07;1.07;;;19.90;99.90;;;;;;5052522;28;20328;-60
2022/05/25 08:11:10;;;;;;;0.80;0.80;;;19.90;99.90;;;;;;5052567;28;20272;-61
2022/05/25 08:13:40;;;;;;;0.97;0.70;;;19.90;99.90;;;;;;5051942;28;20208;-61
2022/05/25 08:16:08;;;;;;;0.47;0.47;;;20.00;99.90;;;;;;5053116;28;20310;-61
2022/05/25 08:18:35;;;;;;;0.40;0.40;;;20.00;99.90;;;;;;5052298;28;20282;-61
2022/05/25 08:21:02;;;;;;;0.60;0.60;;;20.00;99.90;;;;;;5052519;28;20235;-61
2022/05/25 08:23:29;;;;;;;0.60;0.60;;;19.90;99.90;;;;;;5051957;28;20282;-61
2022/05/25 08:25:56;;;;;;;0.70;0.70;;;19.90;99.90;;;;;;5061341;28;20222;-63
2022/05/25 08:28:24;;;;;;;0.43;0.43;;;20.00;99.90;;;;;;5059163;28;20270;-61
2022/05/25 08:30:51;;;;;;;0.30;0.30;;;20.20;99.90;;;;;;5054684;28;20578;-61
2022/05/25 08:33:20;;;;;;;0.50;0.50;;;20.40;99.90;;;;;;5052211;28;20239;-61
2022/05/25 08:35:47;;;;;;;0.67;0.67;;;20.40;99.90;;;;;;5053433;28;20222;-61
2022/05/25 08:38:14;;;;;;;0.60;0.60;;;20.30;99.90;;;;;;5052656;28;20331;-62
2022/05/25 08:40:42;;;;;;;0.53;0.53;;;20.20;99.90;;;;;;5052481;28;20204;-61
2022/05/25 08:43:16;;;;;;;0.77;0.60;;;20.20;99.90;;;;;;5051506;28;20204;-61
2022/05/25 08:45:46;;;;;;;0.70;0.70;;;20.20;99.90;;;;;;5054540;28;20633;-61
2022/05/25 08:48:15;;;;;;;0.47;0.47;;;20.30;99.90;;;;;;5054944;28;20231;-62
2022/05/25 08:50:44;;;;;;;0.60;0.60;;;20.30;99.90;;;;;;5052253;28;20208;-61
2022/05/25 08:53:14;;;;;;;0.70;0.70;;;20.20;99.90;;;;;;5051356;28;20294;-61
2022/05/25 08:55:52;;;;;;;0.40;0.40;;;20.30;99.90;;;;;;5052406;28;20204;-62
2022/05/25 08:58:22;;;;;;;0.60;0.60;;;20.80;99.90;;;;;;5052166;28;20310;-60
2022/05/25 09:00:53;;;;;;;0.80;0.80;;;20.70;99.90;;;;;;5051696;28;20589;-61
2022/05/25 09:03:26;;;;;;;0.60;0.60;;;20.70;99.90;;;;;;5051069;28;20904;-61
2022/05/25 09:05:59;;;;;;;0.70;0.70;;;20.80;99.90;;;;;;5052289;28;20211;-61
2022/05/25 09:08:36;;;;;;;0.52;0.52;;;20.90;99.90;;;;;;5051773;28;20236;-62
2022/05/25 09:11:08;;;;;;;0.70;0.70;;;21.10;99.90;;;;;;5052251;28;20199;-61
2022/05/25 09:13:40;;;;;;;0.57;0.57;;;21.20;99.90;;;;;;5052033;28;20200;-60
2022/05/25 09:16:18;;;;;;;0.50;0.50;;;21.30;99.90;;;;;;5054028;28;20204;-62
2022/05/25 09:18:53;;;;;;;0.50;0.50;;;21.40;99.90;;;;;;5061004;28;20747;-63
2022/05/25 09:21:23;;;;;;;0.50;0.50;;;21.50;99.90;;;;;;5058417;28;20207;-62
2022/05/25 09:23:52;;;;;;;0.43;0.43;;;21.50;99.90;;;;;;5058306;28;20291;-61
2022/05/25 09:26:19;;;;;;;0.50;0.50;;;21.50;99.90;;;;;;5056410;28;20239;-61
2022/05/25 09:28:50;;;;;;;0.60;0.60;;;21.50;99.90;;;;;;5055693;28;20231;-61
2022/05/25 09:31:26;;;;;;;0.30;0.30;;;21.70;99.90;;;;;;5056158;28;20192;-63
2022/05/25 09:33:57;;;;;;;0.30;0.30;;;21.80;99.90;;;;;;5055517;28;20194;-61
2022/05/25 09:36:29;;;;;;;0.40;0.40;;;22.00;99.90;;;;;;5055698;28;20195;-61
2022/05/25 09:39:03;;;;;;;0.50;0.50;;;22.00;99.90;;;;;;5055615;28;20780;-60
2022/05/25 09:41:31;;;;;;;0.40;0.40;;;22.00;99.90;;;;;;5056778;28;20693;-63
2022/05/25 09:43:59;;;;;;;0.40;0.40;;;22.10;99.90;;;;;;5054993;28;20207;-61
2022/05/25 09:46:31;;;;;;;0.40;0.40;;;22.10;99.90;;;;;;5056474;28;20214;-61
2022/05/25 09:49:02;;;;;;;0.40;0.40;;;22.10;99.90;;;;;;5055848;28;20260;-61
2022/05/25 09:51:34;;;;;;;0.60;0.60;;;22.00;99.90;;;;;;5055112;28;20192;-61
2022/05/25 09:54:11;;;;;;;0.60;0.60;;;21.90;99.90;;;;;;5054824;28;20289;-61
2022/05/25 09:56:40;;;;;;;0.50;0.50;;;21.90;99.90;;;;;;5055486;28;20230;-61
2022/05/25 09:59:13;;;;;;;0.40;0.40;;;21.90;99.90;;;;;;5054986;28;20249;-62
2022/05/25 10:01:44;;;;;;;0.50;0.50;;;22.00;99.90;;;;;;5054891;28;20240;-61
2022/05/25 10:04:17;;;;;;;0.50;0.50;;;22.30;99.90;;;;;;5054578;28;20215;-61
2022/05/25 10:06:50;;;;;;;0.40;0.40;;;22.40;99.90;;;;;;5055134;28;20290;-62
2022/05/25 10:09:21;;;;;;;0.40;0.40;;;22.30;99.90;;;;;;5054827;28;20267;-62
2022/05/25 10:11:51;;;;;;;0.40;0.40;;;22.50;99.90;;;;;;5054685;28;20239;-63
2022/05/25 10:14:24;;;;;;;0.37;0.37;;;22.60;99.90;;;;;;5054676;28;20206;-63
2022/05/25 10:16:53;;;;;;;0.50;0.50;;;22.70;99.90;;;;;;5055111;28;20597;-63
2022/05/25 10:19:22;;;;;;;0.33;0.33;;;22.90;99.90;;;;;;5054963;28;20590;-60
2022/05/25 10:21:50;;;;;;;0.50;0.50;;;23.20;99.90;;;;;;5054163;28;20306;-62
2022/05/25 10:24:24;;;;;;;0.47;0.47;;;23.50;99.90;;;;;;5054528;28;20576;-62
2022/05/25 10:26:54;;;;;;;0.57;0.57;;;23.60;99.90;;;;;;5054108;28;20628;-63
2022/05/25 10:38:13;;;;;;;0.50;0.50;;;23.50;99.90;;;;;;5054378;28;20242;-61
2022/05/25 10:40:44;;;;;;;0.40;0.40;;;23.70;99.90;;;;;;5054629;28;20248;-60
2022/05/25 10:43:16;;;;;;;0.50;0.50;;;23.80;99.90;;;;;;5054578;28;20199;-61
2022/05/25 10:45:51;;;;;;;0.30;0.30;;;23.90;99.90;;;;;;5054827;28;20215;-62
2022/05/25 10:48:30;;;;;;;0.50;0.50;;;23.70;99.90;;;;;;5054646;28;20224;-62
2022/05/25 10:50:59;;;;;;;0.35;0.35;;;22.80;99.90;;;;;;5054771;28;20204;-61
2022/05/25 10:53:35;;;;;;;0.40;0.40;;;22.40;99.90;;;;;;5054134;28;20211;-63
2022/05/25 10:56:12;;;;;;;0.52;0.52;;;22.20;99.90;;;;;;5054328;28;20246;-62
2022/05/25 10:58:49;;;;;;;0.40;0.40;;;22.50;99.90;;;;;;5054734;28;20258;-61
2022/05/25 11:01:34;;;;;;;0.50;0.50;;;22.50;99.90;;;;;;5054313;28;20207;-61
2022/05/25 11:04:18;;;;;;;0.50;0.50;;;22.70;99.90;;;;;;5053629;28;20230;-62
2022/05/25 11:06:56;;;;;;;1.25;0.60;;;22.90;99.90;;;;;;5055774;28;20208;-61
2022/05/25 11:10:02;;;;;;;0.47;0.47;;;23.20;99.90;;;;;;5089558;22;20234;-64
2022/05/25 11:12:38;;;;;;;0.30;0.30;;;23.40;99.90;;;;;;5084054;28;20638;-64
2022/05/25 11:15:15;;;;;;;0.97;0.67;;;23.40;99.90;;;;;;5095192;28;20196;-63
2022/05/25 11:17:56;;;;;;;0.40;0.40;;;23.40;99.90;;;;;;5094654;28;20286;-64
2022/05/25 11:20:32;;;;;;;0.43;0.43;;;23.60;99.90;;;;;;5094823;28;20282;-62
2022/05/25 11:23:31;;;;;;;0.50;0.50;;;23.60;99.90;;;;;;5093602;28;20289;-64
2022/05/25 11:26:08;;;;;;;1.00;0.53;;;23.80;99.90;;;;;;5059756;28;20317;-63
2022/05/25 11:28:45;;;;;;;0.35;0.35;;;23.50;99.90;;;;;;5094382;28;20614;-63
2022/05/25 11:31:24;;;;;;;0.60;0.60;;;23.40;99.90;;;;;;5094259;28;20233;-63
2022/05/25 11:34:07;;;;;;;0.60;0.60;;;23.30;99.90;;;;;;5093213;28;20238;-63
2022/05/25 11:36:51;;;;;;;0.50;0.50;;;23.50;99.90;;;;;;5093783;28;20202;-63
2022/05/25 11:39:28;;;;;;;0.35;0.35;;;23.80;99.90;;;;;;5092290;28;20257;-64
2022/05/25 11:42:03;;;;;;;2.42;0.60;;;23.70;99.90;;;;;;5093172;28;20187;-64
2022/05/25 11:44:53;;;;;;;0.40;0.40;;;23.40;99.90;;;;;;5093918;28;20191;-63
2022/05/25 11:47:44;;;;;;;0.40;0.40;;;23.40;99.90;;;;;;5093435;28;20222;-65
2022/05/25 11:50:26;;;;;;;0.70;0.70;;;23.60;99.90;;;;;;5093250;28;20206;-62
2022/05/25 11:53:30;;;;;;;0.70;0.70;;;23.70;99.90;;;;;;5092194;28;20190;-64
2022/05/25 11:56:06;;;;;;;0.50;0.50;;;23.60;99.90;;;;;;5093289;28;20282;-65
2022/05/25 11:58:45;;;;;;;0.93;0.52;;;23.70;99.90;;;;;;5092975;28;20219;-64
2022/05/25 12:01:22;;;;;;;0.77;0.77;;;23.70;99.90;;;;;;5093519;28;20268;-61
2022/05/25 12:04:30;;;;;;;0.53;0.53;;;23.60;99.90;;;;;;5092550;28;20289;-63
2022/05/25 12:07:24;;;;;;;0.43;0.43;;;23.70;99.90;;;;;;5093072;28;20293;-63
2022/05/25 12:10:10;;;;;;;0.60;0.60;;;23.80;99.90;;;;;;5092627;28;20712;-65
2022/05/25 12:12:42;;;;;;;0.40;0.40;;;24.20;99.90;;;;;;5092077;28;20206;-65
2022/05/25 12:15:16;;;;;;;0.43;0.43;;;24.50;99.90;;;;;;5092939;28;20183;-64
2022/05/25 12:17:55;;;;;;;0.40;0.40;;;24.70;99.90;;;;;;5092797;28;20208;-65
2022/05/25 12:20:28;;;;;;;0.50;0.50;;;24.80;99.90;;;;;;5092533;28;20197;-63
2022/05/25 12:23:01;;;;;;;0.40;0.40;;;24.90;99.90;;;;;;5092369;28;20243;-64
2022/05/25 12:25:31;;;;;;;0.52;0.52;;;24.20;99.90;;;;;;5094892;28;20242;-63
2022/05/25 12:28:01;;;;;;;0.50;0.50;;;23.80;99.90;;;;;;5093173;28;20183;-63
2022/05/25 12:30:33;;;;;;;0.65;0.65;;;23.90;99.90;;;;;;5093316;28;20198;-64
2022/05/25 12:33:02;;;;;;;0.50;0.50;;;24.20;99.90;;;;;;5092932;28;20245;-63
2022/05/25 12:35:31;;;;;;;0.40;0.40;;;24.30;99.90;;;;;;5092294;28;20280;-63
2022/05/25 12:37:59;;;;;;;0.52;0.52;;;24.40;99.90;;;;;;5092223;28;20202;-63
2022/05/25 12:40:47;;;;;;;0.20;0.20;;;24.40;99.90;;;;;;5091543;28;20238;-64
2022/05/25 12:43:49;;;;;;;0.30;0.30;;;24.50;99.90;;;;;;5090797;28;20203;-65
2022/05/25 12:49:10;;;;;;;0.30;0.30;;;24.30;99.90;;;;;;5071022;28;20222;-63
2022/05/25 12:51:40;;;;;;;0.47;0.47;;;24.30;99.90;;;;;;5071594;28;20199;-64
2022/05/25 12:54:19;;;;;;;0.47;0.47;;;24.40;99.90;;;;;;5070618;28;20296;-63
2022/05/25 12:56:48;;;;;;;0.57;0.57;;;24.40;99.90;;;;;;5070719;28;20203;-64
2022/05/25 12:59:27;;;;;;;0.35;0.35;;;24.50;99.90;;;;;;5069925;28;20772;-63
2022/05/25 13:02:14;;;;;;;0.88;0.70;;;24.80;99.90;;;;;;5069329;28;20191;-62
2022/05/25 13:04:45;;;;;;;0.50;0.50;;;24.80;99.90;;;;;;5070407;28;20225;-64
2022/05/25 13:07:36;;;;;;;0.20;0.20;;;24.80;99.90;;;;;;5070540;28;20298;-64
2022/05/25 13:10:10;;;;;;;0.43;0.43;;;24.90;99.90;;;;;;5069386;28;20242;-64
2022/05/25 13:12:56;;;;;;;0.45;0.45;;;24.90;99.90;;;;;;5062611;28;20212;-62
2022/05/25 13:15:45;;;;;;;0.38;0.38;;;25.00;99.90;;;;;;5060918;28;20287;-62
2022/05/25 13:18:48;;;;;;;0.45;0.45;;;25.10;99.90;;;;;;5060833;28;20234;-62
2022/05/25 13:21:39;;;;;;;0.57;0.57;;;25.10;99.90;;;;;;5068071;28;20202;-64
2022/05/25 13:24:44;;;;;;;0.40;0.40;;;25.20;99.90;;;;;;5059455;28;20244;-64
2022/05/25 13:27:47;;;;;;;0.32;0.32;;;25.50;99.90;;;;;;5064821;28;20219;-64
2022/05/25 13:30:26;;;;;;;0.40;0.40;;;25.60;99.40;;;;;;5069867;28;20199;-64
2022/05/25 13:32:55;;;;;;;0.52;0.52;;;25.70;99.90;;;;;;5071210;28;20207;-63
2022/05/25 13:35:43;;;;;;;0.40;0.40;;;25.80;99.90;;;;;;5070576;28;20713;-66
2022/05/25 13:38:31;;;;;;;0.60;0.60;;;25.90;98.90;;;;;;5071257;28;20257;-65
2022/05/25 13:41:06;;;;;;;0.50;0.50;;;26.00;99.80;;;;;;5071522;28;20548;-64
2022/05/25 13:44:06;;;;;;;1.73;0.60;;;26.00;99.90;;;;;;5070183;28;20296;-65